LGW weather

London Gatwick Airport
London, England, United Kingdom

Public forecast

Using degrees Celsius for public forecast. Weather courtesy of forecast.io.

METAR (pilot weather report)

Retrieved 2018/10/17 03:20 UTC (29 minutes ago):

EGKK 170320Z VRB01KT CAVOK 11/10 Q1017

TAF (pilot weather forecast)

Forecast is more than 12 hours old.

Retrieved 2018/10/16 00:00 UTC (1 day ago):

TAF EGKK 162259Z 1700/1806 19006KT 9999 SCT018 PROB40 TEMPO 1704/1708 3000 BR BECMG 1709/1712 03010KT TEMPO 1714/1803 BKN012 PROB40 TEMPO 1719/1803 7000 -RADZ BKN004